Boston, Massachusetts
Traffic Map
Current Weather Conditions
Boston, Massachusetts
Overcast Moderate Rain
Overcast

Feels Like: 2°
Wind Chill: Ceiling: 1300
Heat Index: Visibility: 2.5mi
Dew Point: Wind: 5mph
Humidity: 100% Direction: 50° (NE)
Pressure: 29.98in Gusts: 0mph
Raw Report DataKBOS 290038Z 05004KT 2 1/2SM RA BR SCT005 OVC013 04/04 A2998 RMK AO2 SFC VIS 4 P0009 T00390039
Traffic Incident Summary
Active as of:
Severity:
Category:
InformationThere was an issue retrieving the traffic information for this location. Please try a different location or try again shortly.
Advertisements
Track Severe Weather on mobile